createdAt,value
2019-05-09T00:01:27.684Z,46.43
2019-05-09T00:06:34.070Z,46.24
2019-05-09T00:11:40.034Z,46.17
2019-05-09T00:16:45.917Z,46.17
2019-05-09T00:21:54.134Z,46.08
2019-05-09T00:27:00.092Z,46.06
2019-05-09T00:32:14.910Z,45.90
2019-05-09T00:37:23.834Z,46.09
2019-05-09T00:42:29.986Z,45.92
2019-05-09T00:47:35.861Z,46.07
2019-05-09T00:52:43.079Z,46.01
2019-05-09T00:57:50.049Z,46.26
2019-05-09T01:02:55.918Z,46.37
2019-05-09T01:08:04.217Z,46.88
2019-05-09T01:13:10.319Z,46.42
2019-05-09T01:18:16.397Z,46.88
2019-05-09T01:23:23.397Z,46.82
2019-05-09T01:28:29.778Z,47.48
2019-05-09T01:33:38.195Z,47.49
2019-05-09T01:38:44.173Z,47.43
2019-05-09T01:43:53.504Z,47.35
2019-05-09T01:48:58.819Z,47.79
2019-05-09T01:54:05.562Z,47.83
2019-05-09T01:59:13.535Z,47.95
2019-05-09T02:04:19.804Z,48.22
2019-05-09T02:09:25.666Z,48.51
2019-05-09T02:14:34.955Z,48.70
2019-05-09T02:19:43.974Z,48.54
2019-05-09T02:24:50.135Z,48.99
2019-05-09T02:29:56.002Z,49.18
2019-05-09T02:35:04.920Z,48.92
2019-05-09T02:40:11.117Z,49.25
2019-05-09T02:45:19.150Z,49.01
2019-05-09T02:50:24.807Z,48.84
2019-05-09T02:55:30.778Z,48.81
2019-05-09T03:00:54.465Z,48.68
2019-05-09T03:08:59.597Z,49.03
2019-05-09T03:14:08.794Z,49.63
2019-05-09T03:19:13.658Z,49.13
2019-05-09T03:24:19.699Z,48.87
2019-05-09T03:29:33.566Z,48.99
2019-05-09T03:34:39.631Z,49.03
2019-05-09T03:39:47.810Z,48.71
2019-05-09T03:44:52.670Z,48.47
2019-05-09T03:50:09.170Z,48.42
2019-05-09T03:55:18.083Z,48.47
2019-05-09T04:00:24.836Z,48.74
2019-05-09T04:05:30.791Z,48.59
2019-05-09T04:10:38.533Z,48.60
2019-05-09T04:15:43.853Z,48.46
2019-05-09T04:20:49.955Z,47.51
2019-05-09T04:26:12.754Z,47.85
2019-05-09T04:31:18.709Z,47.63
2019-05-09T04:36:39.757Z,47.45
2019-05-09T04:41:45.708Z,47.22
2019-05-09T04:46:54.254Z,47.46
2019-05-09T04:51:59.372Z,47.19
2019-05-09T04:57:07.761Z,47.39
2019-05-09T05:02:17.682Z,46.89
2019-05-09T05:07:23.427Z,46.85
2019-05-09T05:12:29.347Z,47.21
2019-05-09T05:17:37.620Z,46.83
2019-05-09T05:22:44.533Z,45.90
2019-05-09T05:27:50.508Z,46.17
2019-05-09T05:32:58.120Z,46.09
2019-05-09T05:38:04.289Z,45.98
2019-05-09T05:43:10.307Z,46.38
2019-05-09T05:48:17.954Z,45.46
2019-05-09T05:53:24.020Z,45.76
2019-05-09T05:58:30.098Z,45.59
2019-05-09T06:03:38.356Z,44.70
2019-05-09T06:08:44.394Z,45.25
2019-05-09T06:13:56.441Z,45.08
2019-05-09T06:18:59.105Z,44.67
2019-05-09T06:24:05.276Z,44.43
2019-05-09T06:29:11.234Z,45.40
2019-05-09T06:34:18.831Z,45.17
2019-05-09T06:39:25.045Z,45.55
2019-05-09T06:44:32.639Z,45.39
2019-05-09T06:49:40.149Z,45.86
2019-05-09T06:54:48.418Z,45.44
2019-05-09T06:59:54.035Z,45.41
2019-05-09T07:05:07.743Z,45.29
2019-05-09T07:10:13.964Z,45.74
2019-05-09T07:15:19.940Z,45.36
2019-05-09T07:20:25.909Z,45.61
2019-05-09T07:25:33.620Z,45.91
2019-05-09T07:30:47.954Z,45.48
2019-05-09T07:35:53.226Z,45.96
2019-05-09T07:41:00.915Z,45.70
2019-05-09T07:46:12.464Z,46.13
2019-05-09T07:51:18.530Z,46.78
2019-05-09T07:56:24.596Z,46.27
2019-05-09T08:01:30.879Z,45.58
2019-05-09T08:06:38.013Z,45.94
2019-05-09T08:11:44.062Z,45.52
2019-05-09T08:16:49.979Z,45.26
2019-05-09T08:21:57.527Z,44.81
2019-05-09T08:27:03.721Z,44.72
2019-05-09T08:32:09.885Z,43.34
2019-05-09T08:37:17.594Z,44.45
2019-05-09T08:42:23.664Z,42.64
2019-05-09T08:47:29.647Z,44.18
2019-05-09T08:52:37.628Z,43.24
2019-05-09T08:57:43.626Z,42.96
2019-05-09T09:02:49.636Z,43.28
2019-05-09T09:07:57.778Z,43.39
2019-05-09T09:13:03.279Z,42.00
2019-05-09T09:18:09.284Z,42.13
2019-05-09T09:23:17.838Z,42.56
2019-05-09T09:28:22.941Z,41.13
2019-05-09T09:33:29.320Z,42.36
2019-05-09T09:38:37.498Z,40.82
2019-05-09T09:43:43.148Z,40.25
2019-05-09T09:48:49.075Z,40.93
2019-05-09T09:53:58.029Z,40.46
2019-05-09T09:59:20.492Z,39.84
2019-05-09T10:04:28.357Z,39.63
2019-05-09T10:09:34.167Z,40.21
2019-05-09T10:14:44.629Z,39.76
2019-05-09T10:20:07.228Z,39.00
2019-05-09T10:25:13.777Z,39.13
2019-05-09T10:30:33.231Z,39.45
2019-05-09T10:35:40.270Z,39.39
2019-05-09T10:40:48.542Z,39.91
2019-05-09T10:46:15.360Z,39.64
2019-05-09T10:51:19.466Z,39.86
2019-05-09T10:56:27.807Z,39.00
2019-05-09T11:01:33.087Z,39.43
2019-05-09T11:06:39.032Z,40.77
2019-05-09T11:11:45.197Z,40.70
2019-05-09T11:17:06.731Z,39.75
2019-05-09T11:21:58.889Z,40.16
2019-05-09T11:27:04.850Z,40.12
2019-05-09T11:32:10.917Z,40.39
2019-05-09T11:37:16.932Z,40.29
2019-05-09T11:42:23.122Z,39.71
2019-05-09T11:47:39.486Z,42.14
2019-05-09T11:52:38.294Z,41.45
2019-05-09T11:57:44.670Z,41.96
2019-05-09T12:02:50.690Z,42.90
2019-05-09T12:07:58.131Z,42.09
2019-05-09T12:13:04.427Z,41.91
2019-05-09T12:18:11.587Z,43.30
2019-05-09T12:23:19.983Z,42.37
2019-05-09T12:28:25.305Z,42.76
2019-05-09T12:33:33.341Z,44.15
2019-05-09T12:38:39.139Z,43.58
2019-05-09T12:43:45.266Z,43.68
2019-05-09T12:48:51.273Z,43.96
2019-05-09T12:53:58.449Z,44.69
2019-05-09T12:59:04.507Z,44.61
2019-05-09T13:04:10.494Z,44.13
2019-05-09T13:09:17.815Z,45.95
2019-05-09T13:14:24.266Z,46.43
2019-05-09T13:19:32.289Z,46.78
2019-05-09T13:24:38.262Z,46.80
2019-05-09T13:29:44.846Z,47.20
2019-05-09T13:34:50.916Z,47.25
2019-05-09T13:39:56.685Z,47.92
2019-05-09T13:45:02.651Z,49.42
2019-05-09T13:50:10.370Z,49.56
2019-05-09T13:55:17.880Z,50.43
2019-05-09T14:00:24.189Z,50.75
2019-05-09T14:05:30.590Z,50.38
2019-05-09T14:10:38.755Z,50.57
2019-05-09T14:15:44.454Z,50.99
2019-05-09T14:20:50.822Z,50.66
2019-05-09T14:25:59.058Z,50.79
2019-05-09T14:31:04.846Z,51.41
2019-05-09T14:36:10.763Z,51.76
2019-05-09T14:41:19.277Z,51.46
2019-05-09T14:46:25.262Z,52.18
2019-05-09T14:51:31.231Z,53.51
2019-05-09T14:56:41.958Z,54.42
2019-05-09T15:01:44.880Z,55.69
2019-05-09T15:06:50.890Z,56.09
2019-05-09T15:11:58.618Z,56.96
2019-05-09T15:17:04.913Z,57.75
2019-05-09T15:22:10.852Z,59.54
2019-05-09T15:27:17.714Z,59.86
2019-05-09T15:32:23.917Z,60.08
2019-05-09T15:37:30.108Z,60.79
2019-05-09T15:42:38.668Z,60.79
2019-05-09T15:47:43.775Z,61.47
2019-05-09T15:52:49.831Z,60.64
2019-05-09T15:57:57.700Z,62.47
2019-05-09T16:03:03.432Z,61.32
2019-05-09T16:08:11.591Z,63.02
2019-05-09T16:13:17.860Z,63.13
2019-05-09T16:18:23.872Z,63.15
2019-05-09T16:23:29.978Z,63.84
2019-05-09T16:28:37.917Z,65.02
2019-05-09T16:33:43.963Z,64.72
2019-05-09T16:38:50.165Z,65.27
2019-05-09T16:43:58.396Z,65.26
2019-05-09T16:49:05.197Z,65.93
2019-05-09T16:54:11.547Z,66.45
2019-05-09T16:59:18.154Z,66.32
2019-05-09T17:04:24.195Z,66.14
2019-05-09T17:09:30.229Z,66.19
2019-05-09T17:14:36.263Z,66.83
2019-05-09T17:19:42.520Z,68.31
2019-05-09T17:24:49.303Z,67.93
2019-05-09T17:29:55.379Z,67.78
2019-05-09T17:35:01.557Z,67.87
2019-05-09T17:40:08.078Z,68.03
2019-05-09T17:45:14.928Z,68.17
2019-05-09T17:50:21.121Z,68.90
2019-05-09T17:55:27.282Z,69.77
2019-05-09T18:00:33.476Z,69.54
2019-05-09T18:05:39.544Z,69.81
2019-05-09T18:10:45.571Z,70.39
2019-05-09T18:15:51.673Z,70.79
2019-05-09T18:20:58.136Z,71.16
2019-05-09T18:26:04.739Z,71.23
2019-05-09T18:31:10.718Z,71.64
2019-05-09T18:36:16.792Z,72.12
2019-05-09T18:41:22.959Z,72.06
2019-05-09T18:46:29.042Z,72.24
2019-05-09T18:51:35.007Z,72.44
2019-05-09T18:56:42.210Z,72.44
2019-05-09T19:01:48.386Z,72.45
2019-05-09T19:06:54.766Z,72.56
2019-05-09T19:12:01.962Z,71.96
2019-05-09T19:17:10.905Z,70.90
2019-05-09T19:22:22.403Z,70.92
2019-05-09T19:27:24.600Z,70.33
2019-05-09T19:32:30.561Z,70.70
2019-05-09T19:37:36.731Z,70.75
2019-05-09T19:42:42.606Z,70.40
2019-05-09T19:47:48.682Z,70.70
2019-05-09T19:52:54.751Z,70.99
2019-05-09T19:58:01.845Z,71.95
2019-05-09T20:03:07.828Z,73.27
2019-05-09T20:08:15.119Z,73.62
2019-05-09T20:13:22.938Z,73.87
2019-05-09T20:18:29.018Z,74.31
2019-05-09T20:23:35.081Z,74.35
2019-05-09T20:28:41.183Z,73.70
2019-05-09T20:33:47.124Z,73.66
2019-05-09T20:38:53.325Z,73.51
2019-05-09T20:43:59.476Z,73.26
2019-05-09T20:49:05.652Z,73.62
2019-05-09T20:54:20.532Z,73.63
2019-05-09T20:59:19.539Z,73.69
2019-05-09T21:04:25.716Z,73.35
2019-05-09T21:09:32.002Z,73.37
2019-05-09T21:14:38.166Z,73.40
2019-05-09T21:19:44.240Z,73.22
2019-05-09T21:24:50.524Z,73.33
2019-05-09T21:29:56.655Z,73.36
2019-05-09T21:35:02.563Z,73.27
2019-05-09T21:40:09.662Z,74.02
2019-05-09T21:45:16.595Z,73.86
2019-05-09T21:50:22.520Z,74.18
2019-05-09T21:55:28.495Z,74.39
2019-05-09T22:00:38.139Z,74.36
2019-05-09T22:05:44.332Z,74.02
2019-05-09T22:10:50.405Z,73.57
2019-05-09T22:15:56.475Z,73.79
2019-05-09T22:21:02.447Z,73.95
2019-05-09T22:26:08.415Z,73.78
2019-05-09T22:31:14.435Z,73.70
2019-05-09T22:36:20.355Z,73.80
2019-05-09T22:41:26.328Z,74.65
2019-05-09T22:46:32.196Z,74.93
2019-05-09T22:51:38.170Z,75.18
2019-05-09T22:56:44.139Z,75.09
2019-05-09T23:01:50.115Z,75.88
2019-05-09T23:06:56.098Z,75.31
2019-05-09T23:12:02.256Z,74.76
2019-05-09T23:17:09.397Z,75.08
2019-05-09T23:22:16.021Z,74.13
2019-05-09T23:27:21.913Z,74.00
2019-05-09T23:32:32.457Z,74.15
2019-05-09T23:37:38.473Z,74.45
2019-05-09T23:42:44.534Z,74.89
2019-05-09T23:47:51.737Z,74.96
2019-05-09T23:52:57.806Z,73.86
2019-05-09T23:58:21.702Z,73.57
